createdAt,value
2023-01-04T00:00:05.852Z,7.48
2023-01-04T00:01:05.818Z,7.56
2023-01-04T00:02:05.862Z,7.48
2023-01-04T00:03:05.932Z,7.48
2023-01-04T00:04:05.864Z,7.51
2023-01-04T00:05:05.810Z,7.45
2023-01-04T00:06:05.809Z,7.48
2023-01-04T00:07:05.786Z,7.47
2023-01-04T00:08:05.784Z,7.56
2023-01-04T00:09:05.778Z,7.57
2023-01-04T00:10:05.770Z,7.61
2023-01-04T00:11:05.768Z,7.57
2023-01-04T00:12:05.763Z,7.67
2023-01-04T00:13:05.758Z,7.67
2023-01-04T00:14:05.754Z,7.69
2023-01-04T00:15:05.752Z,7.57
2023-01-04T00:16:08.166Z,7.53
2023-01-04T00:17:05.740Z,7.54
2023-01-04T00:18:05.731Z,7.70
2023-01-04T00:19:05.733Z,7.60
2023-01-04T00:20:05.729Z,7.63
2023-01-04T00:21:05.720Z,7.63
2023-01-04T00:22:06.179Z,7.67
2023-01-04T00:23:05.709Z,7.60
2023-01-04T00:24:05.705Z,7.72
2023-01-04T00:25:05.702Z,7.73
2023-01-04T00:26:05.698Z,7.73
2023-01-04T00:27:05.694Z,7.61
2023-01-04T00:28:05.684Z,7.72
2023-01-04T00:29:05.720Z,7.77
2023-01-04T00:30:05.714Z,7.70
2023-01-04T00:31:05.737Z,7.63
2023-01-04T00:32:05.726Z,7.75
2023-01-04T00:33:05.660Z,7.75
2023-01-04T00:34:05.686Z,7.76
2023-01-04T00:35:05.730Z,7.75
2023-01-04T00:36:05.664Z,7.72
2023-01-04T00:37:05.676Z,7.77
2023-01-04T00:38:05.683Z,7.83
2023-01-04T00:39:05.654Z,7.80
2023-01-04T00:40:05.674Z,7.79
2023-01-04T00:41:05.622Z,7.79
2023-01-04T00:42:05.638Z,7.82
2023-01-04T00:43:05.669Z,7.79
2023-01-04T00:44:05.624Z,7.91
2023-01-04T00:45:05.678Z,7.88
2023-01-04T00:46:05.638Z,7.91
2023-01-04T00:47:05.712Z,7.87
2023-01-04T00:48:05.601Z,7.90
2023-01-04T00:49:05.667Z,7.88
2023-01-04T00:50:05.586Z,7.93
2023-01-04T00:51:05.573Z,7.97
2023-01-04T00:52:05.579Z,7.93
2023-01-04T00:53:05.604Z,7.95
2023-01-04T00:54:05.595Z,7.87
2023-01-04T00:55:05.558Z,7.88
2023-01-04T00:56:05.551Z,7.90
2023-01-04T00:57:05.548Z,7.93
2023-01-04T00:58:05.549Z,7.93
2023-01-04T00:59:05.537Z,7.94
2023-01-04T01:00:05.539Z,7.91
2023-01-04T01:01:05.568Z,7.87
2023-01-04T01:02:05.646Z,7.95
2023-01-04T01:03:05.800Z,8.00
2023-01-04T01:04:05.621Z,7.95
2023-01-04T01:05:05.511Z,7.77
2023-01-04T01:06:05.506Z,7.85
2023-01-04T01:07:05.500Z,7.80
2023-01-04T01:08:05.518Z,7.83
2023-01-04T01:09:05.495Z,7.79
2023-01-04T01:10:05.505Z,7.82
2023-01-04T01:11:05.478Z,7.80
2023-01-04T01:12:05.485Z,7.83
2023-01-04T01:13:05.470Z,7.77
2023-01-04T01:14:05.467Z,7.76
2023-01-04T01:15:05.466Z,7.80
2023-01-04T01:16:05.523Z,7.85
2023-01-04T01:17:05.499Z,7.75
2023-01-04T01:18:05.449Z,7.83
2023-01-04T01:19:05.458Z,7.73
2023-01-04T01:20:05.439Z,7.70
2023-01-04T01:21:05.440Z,7.72
2023-01-04T01:22:05.433Z,7.73
2023-01-04T01:23:05.426Z,7.77
2023-01-04T01:24:05.423Z,7.73
2023-01-04T01:25:05.420Z,7.72
2023-01-04T01:26:05.432Z,7.73
2023-01-04T01:27:05.411Z,7.69
2023-01-04T01:28:05.403Z,7.76
2023-01-04T01:29:05.400Z,7.61
2023-01-04T01:30:05.394Z,7.69
2023-01-04T01:31:08.717Z,7.67
2023-01-04T01:32:05.390Z,7.75
2023-01-04T01:33:05.386Z,7.58
2023-01-04T01:34:05.377Z,7.67
2023-01-04T01:35:05.368Z,7.70
2023-01-04T01:36:05.364Z,7.58
2023-01-04T01:37:05.360Z,7.61
2023-01-04T01:38:05.362Z,7.66
2023-01-04T01:39:05.350Z,7.61
2023-01-04T01:40:05.350Z,7.57
2023-01-04T01:41:05.346Z,7.58
2023-01-04T01:42:05.415Z,7.60
2023-01-04T01:43:05.336Z,7.67
2023-01-04T01:44:05.327Z,7.60
2023-01-04T01:45:05.334Z,7.61
2023-01-04T01:46:05.387Z,7.61
2023-01-04T01:47:05.313Z,7.69
2023-01-04T01:48:05.321Z,7.63
2023-01-04T01:49:05.305Z,7.61
2023-01-04T01:50:05.303Z,7.60
2023-01-04T01:51:05.310Z,7.63
2023-01-04T01:52:05.305Z,7.63
2023-01-04T01:53:05.285Z,7.61
2023-01-04T01:54:05.285Z,7.69
2023-01-04T01:55:05.291Z,7.63
2023-01-04T01:56:05.271Z,7.66
2023-01-04T01:57:05.269Z,7.63
2023-01-04T01:58:05.277Z,7.58
2023-01-04T01:59:05.267Z,7.69
2023-01-04T02:00:05.249Z,7.67
2023-01-04T02:01:05.289Z,7.61
2023-01-04T02:02:05.393Z,7.63
2023-01-04T02:03:05.383Z,7.61
2023-01-04T02:04:05.338Z,7.72
2023-01-04T02:05:05.227Z,7.70
2023-01-04T02:06:05.225Z,7.60
2023-01-04T02:07:05.228Z,7.61
2023-01-04T02:08:05.214Z,7.60
2023-01-04T02:09:05.217Z,7.70
2023-01-04T02:10:05.227Z,7.60
2023-01-04T02:11:05.197Z,7.66
2023-01-04T02:12:05.200Z,7.63
2023-01-04T02:13:05.196Z,7.66
2023-01-04T02:14:05.223Z,7.66
2023-01-04T02:15:05.180Z,7.61
2023-01-04T02:16:05.301Z,7.69
2023-01-04T02:17:05.172Z,7.70
2023-01-04T02:18:05.163Z,7.67
2023-01-04T02:19:05.160Z,7.58
2023-01-04T02:20:05.159Z,7.60
2023-01-04T02:21:05.157Z,7.63
2023-01-04T02:22:05.150Z,7.61
2023-01-04T02:23:05.141Z,7.61
2023-01-04T02:24:05.134Z,7.69
2023-01-04T02:25:05.133Z,7.67
2023-01-04T02:26:05.129Z,7.63
2023-01-04T02:27:05.124Z,7.67
2023-01-04T02:28:05.127Z,7.58
2023-01-04T02:29:05.115Z,7.73
2023-01-04T02:30:05.633Z,7.57
2023-01-04T02:31:05.136Z,7.73
2023-01-04T02:32:05.100Z,7.56
2023-01-04T02:33:05.094Z,7.63
2023-01-04T02:34:05.105Z,7.70
2023-01-04T02:35:05.084Z,7.58
2023-01-04T02:36:05.077Z,7.75
2023-01-04T02:37:05.078Z,7.58
2023-01-04T02:38:05.067Z,7.58
2023-01-04T02:39:05.065Z,7.58
2023-01-04T02:40:05.056Z,7.56
2023-01-04T02:41:05.055Z,7.60
2023-01-04T02:42:05.044Z,7.66
2023-01-04T02:43:05.049Z,7.75
2023-01-04T02:44:05.038Z,7.56
2023-01-04T02:45:05.043Z,7.69
2023-01-04T02:46:05.120Z,7.60
2023-01-04T02:47:05.090Z,7.75
2023-01-04T02:48:05.021Z,7.75
2023-01-04T02:49:05.011Z,7.73
2023-01-04T02:50:05.758Z,7.67
2023-01-04T02:51:05.006Z,7.76
2023-01-04T02:52:05.000Z,7.72
2023-01-04T02:53:05.019Z,7.67
2023-01-04T02:54:04.992Z,7.69
2023-01-04T02:55:04.983Z,7.72
2023-01-04T02:56:04.979Z,7.73
2023-01-04T02:57:06.062Z,7.70
2023-01-04T02:58:04.978Z,7.72
2023-01-04T02:59:04.975Z,7.72
2023-01-04T03:00:05.096Z,7.76
2023-01-04T03:01:04.959Z,7.69
2023-01-04T03:02:05.193Z,7.75
2023-01-04T03:03:05.129Z,7.75
2023-01-04T03:04:05.008Z,7.76
2023-01-04T03:05:04.943Z,7.69
2023-01-04T03:06:04.929Z,7.69
2023-01-04T03:07:04.937Z,7.72
2023-01-04T03:08:04.921Z,7.70
2023-01-04T03:09:04.918Z,7.70
2023-01-04T03:10:04.924Z,7.76
2023-01-04T03:11:04.912Z,7.75
2023-01-04T03:12:04.912Z,7.70
2023-01-04T03:13:04.905Z,7.75
2023-01-04T03:14:32.740Z,7.75
2023-01-04T03:15:04.891Z,7.80
2023-01-04T03:16:04.997Z,7.85
2023-01-04T03:17:04.899Z,7.80
2023-01-04T03:18:04.891Z,7.77
2023-01-04T03:19:04.871Z,7.79
2023-01-04T03:20:04.866Z,7.79
2023-01-04T03:21:04.887Z,7.80
2023-01-04T03:22:04.856Z,7.82
2023-01-04T03:23:04.854Z,7.77
2023-01-04T03:24:04.863Z,7.85
2023-01-04T03:25:04.859Z,7.87
2023-01-04T03:26:04.841Z,7.79
2023-01-04T03:27:04.830Z,7.91
2023-01-04T03:28:04.825Z,7.91
2023-01-04T03:29:04.829Z,7.91
2023-01-04T03:30:04.827Z,7.91
2023-01-04T03:31:05.068Z,7.95
2023-01-04T03:32:04.820Z,7.88
2023-01-04T03:33:04.805Z,7.98
2023-01-04T03:34:04.813Z,7.98
2023-01-04T03:35:04.840Z,7.83
2023-01-04T03:36:04.802Z,7.93
2023-01-04T03:37:04.801Z,7.83
2023-01-04T03:38:04.781Z,7.93
2023-01-04T03:39:04.787Z,7.90
2023-01-04T03:40:04.777Z,7.87
2023-01-04T03:41:04.783Z,7.87
2023-01-04T03:42:04.770Z,7.95
2023-01-04T03:43:04.768Z,7.95
2023-01-04T03:44:04.751Z,7.85
2023-01-04T03:45:10.032Z,7.95
2023-01-04T03:46:04.743Z,7.93
2023-01-04T03:47:04.784Z,7.90
2023-01-04T03:48:04.744Z,7.87
2023-01-04T03:49:04.735Z,7.88
2023-01-04T03:50:04.747Z,7.94
2023-01-04T03:51:04.791Z,7.91
2023-01-04T03:52:04.716Z,7.91
2023-01-04T03:53:04.716Z,7.94
2023-01-04T03:54:04.706Z,7.97
2023-01-04T03:55:04.712Z,7.91
2023-01-04T03:56:04.700Z,7.91
2023-01-04T03:57:04.694Z,8.00
2023-01-04T03:58:04.694Z,7.95
2023-01-04T03:59:04.709Z,8.00
2023-01-04T04:00:04.678Z,7.97
2023-01-04T04:01:04.814Z,8.05
2023-01-04T04:02:04.686Z,8.05
2023-01-04T04:03:04.665Z,7.97
2023-01-04T04:04:04.730Z,7.97
2023-01-04T04:05:04.677Z,8.03
2023-01-04T04:06:04.859Z,7.98
2023-01-04T04:07:04.651Z,7.98
2023-01-04T04:08:04.645Z,7.98
2023-01-04T04:09:04.644Z,7.97
2023-01-04T04:10:04.641Z,8.01
2023-01-04T04:11:04.630Z,8.03
2023-01-04T04:12:04.628Z,8.08
2023-01-04T04:13:04.620Z,7.98
2023-01-04T04:14:04.611Z,8.12
2023-01-04T04:15:04.614Z,8.10
2023-01-04T04:16:04.627Z,8.05
2023-01-04T04:17:04.604Z,8.12
2023-01-04T04:18:04.603Z,8.05
2023-01-04T04:19:08.605Z,8.09
2023-01-04T04:20:04.595Z,8.16
2023-01-04T04:21:04.588Z,8.08
2023-01-04T04:22:04.623Z,8.20
2023-01-04T04:23:04.580Z,8.19
2023-01-04T04:24:04.581Z,8.20
2023-01-04T04:25:04.568Z,8.26
2023-01-04T04:26:04.581Z,8.19
2023-01-04T04:27:04.561Z,8.30
2023-01-04T04:28:04.556Z,8.24
2023-01-04T04:29:04.550Z,8.18
2023-01-04T04:30:04.548Z,8.16
2023-01-04T04:31:05.000Z,8.19
2023-01-04T04:32:04.640Z,8.19
2023-01-04T04:33:04.535Z,8.33
2023-01-04T04:34:04.529Z,8.34
2023-01-04T04:35:04.542Z,8.36
2023-01-04T04:36:04.523Z,8.33
2023-01-04T04:37:04.523Z,8.41
2023-01-04T04:38:04.527Z,8.34
2023-01-04T04:39:04.508Z,8.31
2023-01-04T04:40:04.568Z,8.36
2023-01-04T04:41:04.501Z,8.33
2023-01-04T04:42:04.491Z,8.36
2023-01-04T04:43:04.505Z,8.38
2023-01-04T04:44:04.492Z,8.37
2023-01-04T04:45:04.483Z,8.38
2023-01-04T04:46:04.646Z,8.38
2023-01-04T04:47:04.468Z,8.34
2023-01-04T04:48:04.466Z,8.33
2023-01-04T04:49:04.460Z,8.38
2023-01-04T04:50:04.472Z,8.42
2023-01-04T04:51:04.452Z,8.49
2023-01-04T04:52:04.453Z,8.42
2023-01-04T04:53:04.443Z,8.52
2023-01-04T04:54:04.469Z,8.44
2023-01-04T04:55:04.440Z,8.44
2023-01-04T04:56:04.431Z,8.46
2023-01-04T04:57:04.427Z,8.53
2023-01-04T04:58:04.421Z,8.53
2023-01-04T04:59:04.419Z,8.53
2023-01-04T05:00:04.412Z,8.52
2023-01-04T05:01:04.455Z,8.51
2023-01-04T05:02:04.611Z,8.49
2023-01-04T05:03:04.563Z,8.45
2023-01-04T05:04:04.426Z,8.48
2023-01-04T05:05:04.393Z,8.53
2023-01-04T05:06:04.390Z,8.49
2023-01-04T05:07:10.598Z,8.53
2023-01-04T05:08:04.383Z,8.55
2023-01-04T05:09:04.377Z,8.56
2023-01-04T05:10:04.403Z,8.55
2023-01-04T05:11:04.366Z,8.58
2023-01-04T05:12:04.365Z,8.52
2023-01-04T05:13:04.360Z,8.66
2023-01-04T05:14:04.384Z,8.58
2023-01-04T05:15:04.353Z,8.58
2023-01-04T05:16:04.471Z,8.66
2023-01-04T05:17:04.468Z,8.60
2023-01-04T05:18:04.347Z,8.67
2023-01-04T05:19:04.343Z,8.61
2023-01-04T05:20:04.332Z,8.64
2023-01-04T05:21:04.327Z,8.63
2023-01-04T05:22:04.333Z,8.63
2023-01-04T05:23:04.320Z,8.56
2023-01-04T05:24:04.319Z,8.67
2023-01-04T05:25:04.311Z,8.64
2023-01-04T05:26:04.325Z,8.64
2023-01-04T05:27:04.300Z,8.60
2023-01-04T05:28:04.293Z,8.58
2023-01-04T05:29:04.304Z,8.63
2023-01-04T05:30:04.282Z,8.66
2023-01-04T05:31:04.480Z,8.64
2023-01-04T05:32:04.409Z,8.64
2023-01-04T05:33:04.279Z,8.64
2023-01-04T05:34:04.269Z,8.64
2023-01-04T05:35:04.265Z,8.67
2023-01-04T05:36:04.271Z,8.69
2023-01-04T05:37:04.253Z,8.71
2023-01-04T05:38:04.254Z,8.73
2023-01-04T05:39:04.248Z,8.73
2023-01-04T05:40:04.263Z,8.70
2023-01-04T05:41:04.244Z,8.71
2023-01-04T05:42:04.306Z,8.69
2023-01-04T05:43:04.248Z,8.70
2023-01-04T05:44:04.231Z,8.69
2023-01-04T05:45:04.225Z,8.78
2023-01-04T05:46:04.315Z,8.78
2023-01-04T05:47:05.417Z,8.82
2023-01-04T05:48:04.213Z,8.81
2023-01-04T05:49:04.207Z,8.84
2023-01-04T05:50:04.201Z,8.82
2023-01-04T05:51:04.201Z,8.84
2023-01-04T05:52:04.197Z,8.79
2023-01-04T05:53:04.209Z,8.74
2023-01-04T05:54:04.183Z,8.81
2023-01-04T05:55:04.182Z,8.78
2023-01-04T05:56:04.174Z,8.81
2023-01-04T05:57:04.174Z,8.82
2023-01-04T05:58:04.187Z,8.82
2023-01-04T05:59:04.168Z,8.81
2023-01-04T06:00:04.168Z,8.76
2023-01-04T06:01:04.181Z,8.81
2023-01-04T06:02:04.273Z,8.81
2023-01-04T06:03:04.352Z,8.78
2023-01-04T06:04:04.209Z,8.74
2023-01-04T06:05:04.144Z,8.81
2023-01-04T06:06:04.154Z,8.76
2023-01-04T06:07:04.132Z,8.79
2023-01-04T06:08:04.137Z,8.89
2023-01-04T06:09:04.134Z,8.79
2023-01-04T06:10:04.124Z,8.88
2023-01-04T06:11:04.116Z,8.88
2023-01-04T06:12:04.129Z,8.89
2023-01-04T06:13:04.112Z,8.91
2023-01-04T06:14:04.122Z,8.87
2023-01-04T06:15:04.099Z,8.84
2023-01-04T06:16:04.109Z,8.95
2023-01-04T06:17:04.120Z,8.94
2023-01-04T06:18:08.668Z,8.91
2023-01-04T06:19:04.094Z,8.92
2023-01-04T06:20:04.074Z,8.95
2023-01-04T06:21:04.074Z,8.94
2023-01-04T06:22:04.066Z,8.91
2023-01-04T06:23:04.062Z,8.89
2023-01-04T06:24:04.063Z,8.91
2023-01-04T06:25:04.055Z,8.91
2023-01-04T06:26:04.052Z,8.89
2023-01-04T06:27:04.062Z,9.03
2023-01-04T06:28:04.053Z,9.00
2023-01-04T06:29:04.050Z,8.92
2023-01-04T06:30:04.132Z,9.00
2023-01-04T06:31:04.113Z,8.97
2023-01-04T06:32:04.032Z,8.89
2023-01-04T06:33:04.026Z,9.03
2023-01-04T06:34:04.018Z,9.06
2023-01-04T06:35:04.013Z,9.13
2023-01-04T06:36:04.166Z,9.00
2023-01-04T06:37:04.007Z,9.00
2023-01-04T06:38:04.010Z,8.97
2023-01-04T06:39:04.023Z,9.10
2023-01-04T06:40:03.999Z,8.99
2023-01-04T06:41:03.986Z,9.08
2023-01-04T06:42:06.855Z,9.06
2023-01-04T06:43:03.987Z,9.13
2023-01-04T06:44:03.977Z,9.11
2023-01-04T06:45:03.971Z,9.11
2023-01-04T06:46:04.040Z,9.08
2023-01-04T06:47:03.982Z,9.08
2023-01-04T06:48:08.948Z,9.04
2023-01-04T06:49:03.956Z,9.16
2023-01-04T06:50:03.962Z,9.13
2023-01-04T06:51:03.946Z,9.19
2023-01-04T06:52:03.951Z,9.18
2023-01-04T06:53:03.947Z,9.18
2023-01-04T06:54:03.946Z,9.13
2023-01-04T06:55:03.941Z,9.13
2023-01-04T06:56:03.946Z,9.16
2023-01-04T06:57:03.925Z,9.14
2023-01-04T06:58:03.929Z,9.18
2023-01-04T06:59:03.934Z,9.10
2023-01-04T07:00:03.919Z,9.11
2023-01-04T07:01:03.966Z,9.14
2023-01-04T07:02:04.090Z,9.23
2023-01-04T07:03:13.579Z,9.22
2023-01-04T07:04:03.956Z,9.16
2023-01-04T07:05:04.053Z,9.13
2023-01-04T07:06:03.887Z,9.11
2023-01-04T07:07:03.881Z,9.22
2023-01-04T07:08:08.007Z,9.25
2023-01-04T07:09:03.881Z,9.21
2023-01-04T07:10:09.425Z,9.18
2023-01-04T07:11:03.869Z,9.26
2023-01-04T07:12:03.869Z,9.23
2023-01-04T07:13:03.876Z,9.21
2023-01-04T07:14:03.865Z,9.18
2023-01-04T07:15:03.854Z,9.22
2023-01-04T07:16:03.921Z,9.26
2023-01-04T07:17:03.847Z,9.22
2023-01-04T07:18:03.870Z,9.23
2023-01-04T07:19:03.834Z,9.21
2023-01-04T07:20:03.843Z,9.19
2023-01-04T07:21:03.840Z,9.21
2023-01-04T07:22:03.827Z,9.16
2023-01-04T07:23:03.821Z,9.18
2023-01-04T07:24:03.831Z,9.23
2023-01-04T07:25:03.812Z,9.22
2023-01-04T07:26:03.807Z,9.21
2023-01-04T07:27:03.803Z,9.22
2023-01-04T07:28:03.800Z,9.28
2023-01-04T07:29:03.800Z,9.21
2023-01-04T07:30:03.793Z,9.23
2023-01-04T07:31:03.845Z,9.23
2023-01-04T07:32:07.636Z,9.18
2023-01-04T07:33:03.815Z,9.26
2023-01-04T07:34:03.952Z,9.22
2023-01-04T07:35:03.775Z,9.22
2023-01-04T07:36:03.769Z,9.29
2023-01-04T07:37:03.768Z,9.31
2023-01-04T07:38:03.760Z,9.36
2023-01-04T07:39:03.758Z,9.31
2023-01-04T07:40:03.765Z,9.25
2023-01-04T07:41:03.751Z,9.31
2023-01-04T07:42:03.745Z,9.29
2023-01-04T07:43:03.741Z,9.36
2023-01-04T07:44:03.739Z,9.32
2023-01-04T07:45:03.735Z,9.37
2023-01-04T07:46:03.811Z,9.37
2023-01-04T07:47:03.724Z,9.29
2023-01-04T07:48:03.722Z,9.32
2023-01-04T07:49:03.725Z,9.32
2023-01-04T07:50:03.727Z,9.26
2023-01-04T07:51:03.708Z,9.41
2023-01-04T07:52:03.708Z,9.44
2023-01-04T07:53:03.702Z,9.47
2023-01-04T07:54:03.696Z,9.58
2023-01-04T07:55:03.693Z,9.58
2023-01-04T07:56:03.689Z,9.62
2023-01-04T07:57:03.686Z,9.69
2023-01-04T07:58:03.682Z,9.65
2023-01-04T07:59:03.683Z,9.64
2023-01-04T08:00:03.683Z,9.68
2023-01-04T08:01:03.672Z,9.68
2023-01-04T08:02:03.822Z,9.69
2023-01-04T08:03:03.824Z,9.76
2023-01-04T08:04:03.673Z,9.83
2023-01-04T08:05:03.750Z,9.77
2023-01-04T08:06:03.668Z,9.84
2023-01-04T08:07:03.650Z,9.86
2023-01-04T08:08:03.667Z,9.86
2023-01-04T08:09:03.655Z,9.86
2023-01-04T08:10:03.633Z,9.95
2023-01-04T08:11:03.628Z,9.95
2023-01-04T08:12:03.634Z,9.92
2023-01-04T08:13:03.627Z,9.92
2023-01-04T08:14:03.619Z,9.91
2023-01-04T08:15:03.613Z,10.04
2023-01-04T08:16:03.715Z,10.02
2023-01-04T08:17:03.606Z,10.07
2023-01-04T08:18:03.612Z,10.04
2023-01-04T08:19:03.602Z,10.10
2023-01-04T08:20:03.654Z,10.10
2023-01-04T08:21:03.592Z,10.13
2023-01-04T08:22:03.615Z,10.10
2023-01-04T08:23:03.588Z,10.10
2023-01-04T08:24:03.586Z,10.04
2023-01-04T08:25:03.579Z,10.12
2023-01-04T08:26:03.573Z,10.17
2023-01-04T08:27:03.570Z,10.10
2023-01-04T08:28:03.569Z,10.16
2023-01-04T08:29:03.565Z,10.17
2023-01-04T08:30:03.558Z,10.17
2023-01-04T08:31:03.637Z,10.19
2023-01-04T08:32:03.552Z,10.22
2023-01-04T08:33:03.544Z,10.25
2023-01-04T08:34:03.540Z,10.25
2023-01-04T08:35:03.544Z,10.17
2023-01-04T08:36:03.534Z,10.20
2023-01-04T08:37:03.983Z,10.17
2023-01-04T08:38:46.880Z,10.26
2023-01-04T08:39:03.522Z,10.25
2023-01-04T08:40:03.575Z,10.23
2023-01-04T08:41:23.018Z,10.19
2023-01-04T08:42:14.367Z,10.17
2023-01-04T08:43:03.508Z,10.22
2023-01-04T08:44:03.520Z,10.20
2023-01-04T08:45:03.503Z,10.28
2023-01-04T08:46:03.526Z,10.25
2023-01-04T08:47:03.595Z,10.25
2023-01-04T08:48:03.489Z,10.20
2023-01-04T08:49:03.484Z,10.19
2023-01-04T08:50:10.494Z,10.19
2023-01-04T08:51:03.476Z,10.20
2023-01-04T08:52:03.472Z,10.25
2023-01-04T08:53:03.482Z,10.23
2023-01-04T08:54:03.567Z,10.25
2023-01-04T08:55:10.101Z,10.31
2023-01-04T08:56:03.469Z,10.31
2023-01-04T08:57:03.458Z,10.33
2023-01-04T08:58:03.460Z,10.35
2023-01-04T08:59:03.456Z,10.33
2023-01-04T09:00:03.450Z,10.38
2023-01-04T09:01:03.461Z,10.48
2023-01-04T09:02:05.843Z,10.38
2023-01-04T09:03:03.588Z,10.35
2023-01-04T09:04:03.559Z,10.46
2023-01-04T09:05:03.566Z,10.48
2023-01-04T09:06:03.428Z,10.34
2023-01-04T09:07:03.419Z,10.44
2023-01-04T09:08:03.427Z,10.48
2023-01-04T09:09:03.417Z,10.42
2023-01-04T09:10:03.443Z,10.46
2023-01-04T09:11:03.403Z,10.38
2023-01-04T09:12:03.403Z,10.49
2023-01-04T09:13:03.394Z,10.46
2023-01-04T09:14:07.870Z,10.42
2023-01-04T09:15:03.385Z,10.49
2023-01-04T09:16:03.503Z,10.51
2023-01-04T09:17:03.403Z,10.54
2023-01-04T09:18:31.782Z,10.54
2023-01-04T09:19:03.368Z,10.54
2023-01-04T09:20:03.370Z,10.68
2023-01-04T09:21:03.389Z,10.68
2023-01-04T09:22:03.498Z,10.69
2023-01-04T09:23:03.355Z,10.68
2023-01-04T09:24:03.354Z,10.72
2023-01-04T09:25:03.355Z,10.75
2023-01-04T09:26:09.102Z,10.79
2023-01-04T09:27:03.344Z,10.81
2023-01-04T09:28:03.345Z,10.86
2023-01-04T09:29:03.337Z,10.82
2023-01-04T09:30:03.332Z,10.89
2023-01-04T09:31:03.401Z,10.81
2023-01-04T09:32:03.414Z,10.81
2023-01-04T09:33:03.319Z,10.79
2023-01-04T09:34:14.264Z,10.82
2023-01-04T09:35:03.316Z,10.74
2023-01-04T09:36:03.316Z,10.76
2023-01-04T09:37:03.307Z,10.78
2023-01-04T09:38:03.310Z,10.78
2023-01-04T09:39:03.296Z,10.84
2023-01-04T09:40:03.296Z,10.74
2023-01-04T09:41:03.592Z,10.87
2023-01-04T09:42:03.319Z,10.84
2023-01-04T09:43:21.123Z,10.86
2023-01-04T09:44:03.280Z,10.86
2023-01-04T09:45:23.172Z,10.79
2023-01-04T09:46:03.275Z,10.89
2023-01-04T09:47:03.324Z,10.86
2023-01-04T09:48:03.266Z,10.87
2023-01-04T09:49:03.265Z,10.84
2023-01-04T09:50:04.336Z,10.82
2023-01-04T09:51:03.256Z,10.89
2023-01-04T09:52:03.252Z,10.93
2023-01-04T09:53:03.264Z,10.97
2023-01-04T09:54:03.241Z,10.99
2023-01-04T09:55:36.558Z,11.00
2023-01-04T09:56:03.238Z,10.93
2023-01-04T09:57:03.233Z,11.00
2023-01-04T09:58:03.253Z,10.96
2023-01-04T09:59:03.224Z,10.99
2023-01-04T10:00:03.223Z,10.94
2023-01-04T10:01:03.279Z,10.97
2023-01-04T10:02:03.416Z,11.04
2023-01-04T10:03:03.281Z,10.99
2023-01-04T10:04:03.216Z,10.97
2023-01-04T10:05:03.212Z,11.04
2023-01-04T10:06:03.246Z,11.08
2023-01-04T10:07:05.421Z,11.08
2023-01-04T10:08:03.200Z,11.11
2023-01-04T10:09:03.189Z,11.12
2023-01-04T10:10:03.217Z,11.10
2023-01-04T10:11:03.192Z,11.17
2023-01-04T10:12:03.176Z,11.08
2023-01-04T10:13:03.234Z,11.08
2023-01-04T10:14:03.199Z,11.11
2023-01-04T10:15:03.227Z,11.04
2023-01-04T10:16:03.253Z,11.00
2023-01-04T10:17:35.441Z,10.94
2023-01-04T10:19:51.516Z,11.11
2023-01-04T10:22:03.169Z,10.94
2023-01-04T10:23:03.144Z,10.96
2023-01-04T10:24:03.137Z,11.00
2023-01-04T10:25:03.130Z,10.96
2023-01-04T10:26:03.133Z,11.00
2023-01-04T10:27:03.123Z,11.04
2023-01-04T10:28:03.128Z,11.02
2023-01-04T10:29:03.117Z,11.02
2023-01-04T10:30:03.131Z,11.07
2023-01-04T10:31:40.832Z,11.11
2023-01-04T10:32:03.145Z,11.08
2023-01-04T10:33:03.103Z,11.07
2023-01-04T10:34:03.105Z,11.04
2023-01-04T10:35:03.094Z,11.00
2023-01-04T10:36:03.095Z,10.96
2023-01-04T10:37:03.088Z,11.04
2023-01-04T10:38:03.085Z,10.96
2023-01-04T10:39:03.083Z,10.94
2023-01-04T10:40:03.075Z,10.97
2023-01-04T10:41:03.426Z,11.10
2023-01-04T10:42:03.070Z,10.97
2023-01-04T10:43:03.077Z,10.96
2023-01-04T10:44:10.572Z,10.97
2023-01-04T10:45:08.458Z,10.96
2023-01-04T10:46:03.072Z,10.99
2023-01-04T10:47:03.081Z,10.84
2023-01-04T10:48:03.052Z,10.82
2023-01-04T10:49:03.047Z,10.96
2023-01-04T10:50:03.043Z,10.90
2023-01-04T10:51:09.728Z,10.87
2023-01-04T10:52:03.041Z,10.82
2023-01-04T10:53:03.030Z,10.87
2023-01-04T10:54:03.026Z,10.86
2023-01-04T10:55:03.028Z,10.82
2023-01-04T10:56:25.190Z,10.86
2023-01-04T10:57:06.735Z,10.90
2023-01-04T10:58:04.686Z,10.84
2023-01-04T10:59:03.035Z,10.86
2023-01-04T11:00:03.037Z,10.90
2023-01-04T11:01:03.091Z,10.76
2023-01-04T11:02:03.292Z,10.79
2023-01-04T11:03:08.516Z,10.79
2023-01-04T11:04:02.992Z,10.81
2023-01-04T11:05:02.996Z,10.84
2023-01-04T11:06:02.983Z,10.87
2023-01-04T11:07:02.988Z,10.87
2023-01-04T11:08:02.990Z,10.78
2023-01-04T11:09:02.981Z,10.89
2023-01-04T11:10:02.970Z,10.84
2023-01-04T11:11:02.967Z,10.89
2023-01-04T11:12:02.962Z,10.72
2023-01-04T11:13:02.967Z,10.89
2023-01-04T11:14:02.958Z,10.84
2023-01-04T11:15:02.951Z,10.92
2023-01-04T11:16:03.061Z,10.78
2023-01-04T11:17:02.945Z,10.82
2023-01-04T11:18:02.971Z,10.84
2023-01-04T11:19:02.938Z,10.79
2023-01-04T11:20:02.933Z,10.79
2023-01-04T11:21:02.931Z,10.90
2023-01-04T11:22:02.925Z,10.94
2023-01-04T11:23:02.963Z,10.89
2023-01-04T11:24:30.161Z,10.84
2023-01-04T11:26:02.916Z,10.87
2023-01-04T11:27:02.912Z,10.93
2023-01-04T11:28:02.905Z,10.94
2023-01-04T11:29:02.910Z,10.93
2023-01-04T11:30:02.899Z,10.81
2023-01-04T11:31:02.908Z,10.94
2023-01-04T11:32:03.011Z,10.90
2023-01-04T11:33:02.895Z,10.93
2023-01-04T11:34:02.900Z,10.93
2023-01-04T11:35:02.884Z,10.97
2023-01-04T11:36:02.884Z,10.90
2023-01-04T11:37:02.887Z,11.04
2023-01-04T11:38:02.870Z,10.92
2023-01-04T11:39:02.870Z,10.99
2023-01-04T11:40:02.864Z,10.92
2023-01-04T11:41:02.860Z,10.90
2023-01-04T11:42:03.716Z,11.02
2023-01-04T11:43:02.870Z,10.96
2023-01-04T11:44:02.850Z,10.93
2023-01-04T11:45:02.851Z,10.99
2023-01-04T11:46:02.980Z,10.93
2023-01-04T11:47:02.842Z,10.99
2023-01-04T11:48:02.854Z,10.99
2023-01-04T11:49:02.846Z,11.02
2023-01-04T11:50:02.897Z,11.00
2023-01-04T11:51:02.827Z,10.99
2023-01-04T11:52:02.831Z,11.00
2023-01-04T11:53:02.823Z,11.07
2023-01-04T11:54:02.834Z,10.96
2023-01-04T11:55:02.809Z,11.08
2023-01-04T11:56:02.810Z,10.99
2023-01-04T11:57:06.159Z,11.07
2023-01-04T11:58:02.812Z,11.04
2023-01-04T11:59:02.800Z,11.00
2023-01-04T12:00:02.797Z,11.00
2023-01-04T12:01:02.807Z,11.02
2023-01-04T12:02:02.938Z,11.10
2023-01-04T12:03:03.118Z,11.08
2023-01-04T12:04:02.795Z,11.14
2023-01-04T12:05:02.780Z,11.07
2023-01-04T12:06:02.815Z,11.10
2023-01-04T12:07:02.785Z,11.12
2023-01-04T12:08:02.765Z,11.11
2023-01-04T12:09:02.767Z,11.17
2023-01-04T12:10:04.966Z,11.10
2023-01-04T12:11:02.760Z,11.12
2023-01-04T12:12:02.761Z,11.17
2023-01-04T12:13:02.766Z,11.15
2023-01-04T12:14:02.750Z,11.18
2023-01-04T12:15:02.746Z,11.25
2023-01-04T12:16:02.740Z,11.35
2023-01-04T12:17:02.760Z,11.30
2023-01-04T12:18:02.733Z,11.32
2023-01-04T12:19:02.734Z,11.32
2023-01-04T12:20:02.741Z,11.32
2023-01-04T12:21:02.727Z,11.33
2023-01-04T12:22:02.739Z,11.30
2023-01-04T12:23:02.719Z,11.27
2023-01-04T12:24:02.719Z,11.33
2023-01-04T12:25:02.712Z,11.33
2023-01-04T12:26:02.736Z,11.35
2023-01-04T12:27:02.716Z,11.35
2023-01-04T12:28:02.701Z,11.36
2023-01-04T12:29:02.701Z,11.33
2023-01-04T12:30:02.702Z,11.33
2023-01-04T12:32:02.687Z,11.30
2023-01-04T12:33:02.691Z,11.35
2023-01-04T12:34:02.684Z,11.36
2023-01-04T12:35:02.679Z,11.35
2023-01-04T12:36:02.681Z,11.44
2023-01-04T12:37:05.630Z,11.47
2023-01-04T12:38:02.689Z,11.37
2023-01-04T12:39:02.667Z,11.40
2023-01-04T12:40:02.685Z,11.40
2023-01-04T12:41:02.664Z,11.50
2023-01-04T12:42:02.660Z,11.37
2023-01-04T12:43:02.651Z,11.45
2023-01-04T12:44:02.643Z,11.40
2023-01-04T12:45:02.652Z,11.40
2023-01-04T12:46:02.693Z,11.44
2023-01-04T12:47:02.635Z,11.41
2023-01-04T12:48:02.637Z,11.36
2023-01-04T12:49:02.633Z,11.32
2023-01-04T12:50:02.624Z,11.36
2023-01-04T12:51:14.644Z,11.30
2023-01-04T12:52:29.376Z,11.40
2023-01-04T12:53:19.923Z,11.36
2023-01-04T12:54:02.656Z,11.33
2023-01-04T12:55:02.618Z,11.30
2023-01-04T12:56:02.609Z,11.33
2023-01-04T12:57:02.608Z,11.32
2023-01-04T12:58:02.612Z,11.33
2023-01-04T12:59:27.108Z,11.35
2023-01-04T13:00:02.590Z,11.33
2023-01-04T13:01:02.714Z,11.29
2023-01-04T13:02:02.687Z,11.32
2023-01-04T13:03:02.778Z,11.29
2023-01-04T13:04:05.466Z,11.30
2023-01-04T13:06:02.580Z,11.36
2023-01-04T13:07:02.597Z,11.41
2023-01-04T13:08:02.573Z,11.43
2023-01-04T13:09:02.577Z,11.43
2023-01-04T13:10:02.675Z,11.37
2023-01-04T13:11:02.560Z,11.45
2023-01-04T13:12:02.553Z,11.44
2023-01-04T13:13:02.550Z,11.37
2023-01-04T13:14:02.572Z,11.50